createdAt,value
2019-03-25T00:01:26.682Z,37.13
2019-03-25T00:03:56.577Z,55.60
2019-03-25T00:06:26.582Z,43.67
2019-03-25T00:09:04.767Z,33.13
2019-03-25T00:11:28.150Z,24.20
2019-03-25T00:13:58.112Z,34.73
2019-03-25T00:16:28.094Z,35.97
2019-03-25T00:18:57.993Z,39.53
2019-03-25T00:21:27.892Z,34.53
2019-03-25T00:23:57.791Z,35.77
2019-03-25T00:26:27.727Z,31.73
2019-03-25T00:28:57.673Z,39.50
2019-03-25T00:31:27.608Z,44.10
2019-03-25T00:33:57.690Z,40.00
2019-03-25T00:36:27.576Z,42.10
2019-03-25T00:38:57.444Z,33.80
2019-03-25T00:41:27.451Z,22.80
2019-03-25T00:43:57.395Z,21.27
2019-03-25T00:46:27.335Z,16.87
2019-03-25T00:48:57.224Z,63.27
2019-03-25T00:51:27.092Z,46.80
2019-03-25T00:53:57.088Z,23.50
2019-03-25T00:56:26.999Z,21.67
2019-03-25T00:58:56.915Z,26.57
2019-03-25T01:01:26.828Z,26.90
2019-03-25T01:03:56.730Z,26.03
2019-03-25T01:06:26.661Z,24.93
2019-03-25T01:08:56.609Z,26.70
2019-03-25T01:11:26.592Z,27.93
2019-03-25T01:13:58.050Z,26.80
2019-03-25T01:16:28.067Z,23.07
2019-03-25T01:18:57.977Z,23.40
2019-03-25T01:21:27.882Z,23.47
2019-03-25T01:23:57.783Z,24.30
2019-03-25T01:26:27.710Z,26.73
2019-03-25T01:28:57.637Z,28.23
2019-03-25T01:31:27.540Z,26.17
2019-03-25T01:33:57.454Z,26.37
2019-03-25T01:36:27.350Z,29.20
2019-03-25T01:38:57.230Z,33.87
2019-03-25T01:41:27.199Z,32.83
2019-03-25T01:43:57.132Z,28.00
2019-03-25T01:46:27.054Z,25.47
2019-03-25T01:48:57.013Z,28.30
2019-03-25T01:51:26.995Z,30.27
2019-03-25T01:53:56.914Z,28.50
2019-03-25T01:56:26.838Z,28.87
2019-03-25T01:58:56.757Z,30.97
2019-03-25T02:01:26.669Z,28.43
2019-03-25T02:03:56.714Z,28.00
2019-03-25T02:06:26.634Z,28.53
2019-03-25T02:08:56.527Z,24.63
2019-03-25T02:11:26.449Z,28.43
2019-03-25T02:13:56.339Z,27.57
2019-03-25T02:16:26.255Z,32.53
2019-03-25T02:18:56.186Z,28.13
2019-03-25T02:21:26.169Z,26.83
2019-03-25T02:23:56.062Z,23.53
2019-03-25T02:26:26.002Z,28.57
2019-03-25T02:28:55.901Z,26.97
2019-03-25T02:31:25.837Z,24.47
2019-03-25T02:33:55.716Z,23.43
2019-03-25T02:36:25.675Z,27.37
2019-03-25T02:38:55.565Z,28.30
2019-03-25T02:41:25.504Z,29.93
2019-03-25T02:43:55.539Z,27.93
2019-03-25T02:46:25.472Z,27.53
2019-03-25T02:48:55.397Z,42.30
2019-03-25T02:51:25.340Z,29.03
2019-03-25T02:53:55.336Z,32.43
2019-03-25T02:56:25.296Z,27.07
2019-03-25T02:58:55.242Z,30.80
2019-03-25T03:01:25.143Z,29.43
2019-03-25T03:03:55.036Z,25.07
2019-03-25T03:06:24.927Z,23.17
2019-03-25T03:08:54.856Z,24.87
2019-03-25T03:11:24.773Z,39.93
2019-03-25T03:13:54.711Z,30.23
2019-03-25T03:16:24.618Z,32.67
2019-03-25T03:18:54.527Z,26.83
2019-03-25T03:21:24.428Z,34.20
2019-03-25T03:23:54.351Z,28.97
2019-03-25T03:26:24.256Z,28.17
2019-03-25T03:28:54.180Z,31.53
2019-03-25T03:31:24.062Z,35.07
2019-03-25T03:33:54.024Z,29.73
2019-03-25T03:36:23.977Z,30.60
2019-03-25T03:38:53.883Z,28.63
2019-03-25T03:41:23.877Z,31.43
2019-03-25T03:43:53.773Z,29.50
2019-03-25T03:46:23.711Z,27.87
2019-03-25T03:48:53.656Z,30.83
2019-03-25T03:51:23.776Z,28.23
2019-03-25T03:53:53.689Z,32.17
2019-03-25T03:56:24.692Z,36.33
2019-03-25T03:58:54.678Z,22.93
2019-03-25T04:01:24.599Z,23.93
2019-03-25T04:03:54.476Z,25.03
2019-03-25T04:06:24.348Z,27.90
2019-03-25T04:08:54.239Z,26.00
2019-03-25T04:11:24.132Z,27.23
2019-03-25T04:13:54.094Z,24.93
2019-03-25T04:16:24.039Z,28.37
2019-03-25T04:18:54.028Z,26.40
2019-03-25T04:21:23.971Z,26.47
2019-03-25T04:23:53.857Z,27.17
2019-03-25T04:26:29.185Z,31.17
2019-03-25T04:28:55.524Z,33.27
2019-03-25T04:31:25.435Z,36.27
2019-03-25T04:33:55.347Z,36.27
2019-03-25T04:36:25.234Z,28.67
2019-03-25T04:38:55.154Z,27.23
2019-03-25T04:41:25.076Z,28.67
2019-03-25T04:43:55.026Z,29.10
2019-03-25T04:46:24.918Z,36.97
2019-03-25T04:48:54.829Z,36.53
2019-03-25T04:51:24.727Z,38.07
2019-03-25T04:53:54.672Z,34.83
2019-03-25T04:56:24.597Z,34.90
2019-03-25T04:58:54.488Z,35.67
2019-03-25T05:01:24.374Z,31.63
2019-03-25T05:03:54.299Z,31.40
2019-03-25T05:06:24.200Z,29.70
2019-03-25T05:08:54.085Z,38.43
2019-03-25T05:11:30.604Z,28.40
2019-03-25T05:13:55.694Z,24.77
2019-03-25T05:16:25.685Z,32.37
2019-03-25T05:18:55.593Z,27.10
2019-03-25T05:21:25.503Z,25.23
2019-03-25T05:23:55.737Z,28.70
2019-03-25T05:26:25.638Z,32.23
2019-03-25T05:28:55.675Z,28.37
2019-03-25T05:31:25.569Z,35.57
2019-03-25T05:33:55.466Z,26.20
2019-03-25T05:36:25.390Z,32.20
2019-03-25T05:38:55.331Z,24.57
2019-03-25T05:41:25.290Z,26.60
2019-03-25T05:43:55.235Z,26.50
2019-03-25T05:46:25.128Z,26.67
2019-03-25T05:48:55.199Z,26.57
2019-03-25T05:51:25.234Z,29.60
2019-03-25T05:53:55.200Z,31.90
2019-03-25T05:56:25.110Z,23.93
2019-03-25T05:58:55.018Z,35.67
2019-03-25T06:01:25.607Z,31.70
2019-03-25T06:03:55.502Z,32.60
2019-03-25T06:06:25.390Z,33.57
2019-03-25T06:08:55.711Z,35.10
2019-03-25T06:11:25.733Z,31.30
2019-03-25T06:13:55.732Z,30.07
2019-03-25T06:16:25.637Z,28.47
2019-03-25T06:18:55.582Z,34.07
2019-03-25T06:21:25.579Z,35.33
2019-03-25T06:23:55.491Z,32.00
2019-03-25T06:26:25.414Z,41.03
2019-03-25T06:28:55.977Z,30.00
2019-03-25T06:31:25.951Z,33.20
2019-03-25T06:33:55.852Z,27.73
2019-03-25T06:36:25.821Z,32.27
2019-03-25T06:38:56.124Z,35.20
2019-03-25T06:41:26.046Z,39.13
2019-03-25T06:43:56.338Z,33.23
2019-03-25T06:46:26.257Z,32.87
2019-03-25T06:48:56.238Z,33.23
2019-03-25T06:51:26.205Z,29.30
2019-03-25T06:53:56.341Z,31.23
2019-03-25T06:56:26.254Z,37.70
2019-03-25T06:58:56.396Z,31.07
2019-03-25T07:01:26.303Z,35.70
2019-03-25T07:03:56.216Z,33.43
2019-03-25T07:06:26.193Z,38.90
2019-03-25T07:08:56.167Z,31.97
2019-03-25T07:11:26.074Z,32.70
2019-03-25T07:13:56.467Z,35.70
2019-03-25T07:16:26.384Z,29.67
2019-03-25T07:18:56.392Z,35.20
2019-03-25T07:21:27.895Z,31.50
2019-03-25T07:23:58.260Z,31.97
2019-03-25T07:26:28.181Z,32.20
2019-03-25T07:28:58.603Z,39.23
2019-03-25T07:31:28.524Z,30.13
2019-03-25T07:33:58.434Z,33.27
2019-03-25T07:36:28.383Z,31.67
2019-03-25T07:39:00.202Z,32.30
2019-03-25T07:41:30.290Z,29.87
2019-03-25T07:44:00.250Z,29.50
2019-03-25T07:46:30.152Z,29.47
2019-03-25T07:49:00.136Z,31.70
2019-03-25T07:51:30.228Z,30.53
2019-03-25T07:54:00.269Z,26.47
2019-03-25T07:56:30.246Z,27.27
2019-03-25T07:59:00.298Z,26.13
2019-03-25T08:01:30.295Z,23.43
2019-03-25T08:04:00.179Z,25.27
2019-03-25T08:06:30.099Z,24.90
2019-03-25T08:09:03.942Z,21.37
2019-03-25T08:11:31.715Z,21.80
2019-03-25T08:14:01.625Z,22.47
2019-03-25T08:16:31.543Z,22.30
2019-03-25T08:19:01.448Z,21.05
2019-03-25T08:21:31.515Z,21.05
2019-03-25T08:24:01.486Z,21.52
2019-03-25T08:26:31.384Z,25.82
2019-03-25T08:29:01.348Z,22.57
2019-03-25T08:31:31.269Z,23.70
2019-03-25T08:34:01.185Z,24.03
2019-03-25T08:36:31.070Z,21.27
2019-03-25T08:39:01.190Z,23.77
2019-03-25T08:41:31.113Z,26.70
2019-03-25T08:44:01.082Z,22.00
2019-03-25T08:46:30.996Z,24.40
2019-03-25T08:49:00.976Z,24.82
2019-03-25T08:51:30.854Z,20.05
2019-03-25T08:54:00.824Z,22.30
2019-03-25T08:56:30.730Z,20.77
2019-03-25T08:59:00.619Z,21.20
2019-03-25T09:01:30.533Z,21.48
2019-03-25T09:04:00.495Z,18.42
2019-03-25T09:06:30.400Z,18.45
2019-03-25T09:09:00.673Z,16.50
2019-03-25T09:11:30.660Z,16.17
2019-03-25T09:14:00.728Z,20.48
2019-03-25T09:16:30.695Z,17.57
2019-03-25T09:19:00.623Z,17.70
2019-03-25T09:21:30.942Z,17.30
2019-03-25T09:24:00.889Z,18.95
2019-03-25T09:26:30.833Z,21.37
2019-03-25T09:29:00.806Z,21.97
2019-03-25T09:31:36.781Z,22.02
2019-03-25T09:34:02.536Z,18.52
2019-03-25T09:36:32.495Z,15.95
2019-03-25T09:39:03.165Z,16.73
2019-03-25T09:41:33.113Z,16.60
2019-03-25T09:44:04.236Z,17.52
2019-03-25T09:50:39.871Z,19.62
2019-03-25T09:53:09.923Z,17.67
2019-03-25T09:55:39.809Z,19.90
2019-03-25T09:58:09.721Z,18.85
2019-03-25T10:00:40.275Z,19.98
2019-03-25T10:03:10.271Z,18.45
2019-03-25T10:05:40.250Z,17.55
2019-03-25T10:08:10.167Z,19.35
2019-03-25T10:10:40.082Z,18.85
2019-03-25T10:13:09.975Z,19.10
2019-03-25T10:15:39.891Z,17.77
2019-03-25T10:18:09.821Z,16.57
2019-03-25T10:20:39.705Z,18.85
2019-03-25T10:23:09.660Z,17.98
2019-03-25T10:25:39.534Z,18.37
2019-03-25T10:28:09.672Z,18.62
2019-03-25T10:30:39.855Z,20.08
2019-03-25T10:33:09.797Z,17.23
2019-03-25T10:35:39.729Z,20.77
2019-03-25T10:38:19.155Z,18.40
2019-03-25T10:40:41.399Z,20.08
2019-03-25T10:43:11.329Z,23.40
2019-03-25T10:45:41.244Z,21.00
2019-03-25T10:48:11.266Z,18.23
2019-03-25T10:50:41.197Z,20.48
2019-03-25T10:53:11.069Z,22.07
2019-03-25T10:55:40.965Z,21.15
2019-03-25T10:58:10.846Z,19.02
2019-03-25T11:00:40.983Z,21.30
2019-03-25T11:03:10.843Z,19.12
2019-03-25T11:05:40.799Z,18.82
2019-03-25T11:08:10.697Z,18.80
2019-03-25T11:10:40.647Z,22.27
2019-03-25T11:13:10.548Z,22.10
2019-03-25T11:15:40.655Z,19.77
2019-03-25T11:18:10.646Z,21.27
2019-03-25T11:20:40.545Z,21.12
2019-03-25T11:23:10.598Z,21.77
2019-03-25T11:25:40.505Z,20.52
2019-03-25T11:28:12.237Z,20.12
2019-03-25T11:31:01.204Z,18.07
2019-03-25T11:33:31.120Z,20.77
2019-03-25T11:36:02.897Z,17.95
2019-03-25T11:38:33.129Z,17.65
2019-03-25T11:41:03.155Z,17.02
2019-03-25T11:43:33.076Z,15.85
2019-03-25T11:46:02.975Z,15.70
2019-03-25T11:48:32.897Z,16.02
2019-03-25T11:51:02.802Z,18.23
2019-03-25T11:53:32.734Z,20.25
2019-03-25T11:56:02.670Z,17.10
2019-03-25T11:58:32.568Z,15.65
2019-03-25T12:01:02.487Z,17.98
2019-03-25T12:03:32.410Z,17.90
2019-03-25T12:06:02.348Z,15.20
2019-03-25T12:08:33.194Z,15.20
2019-03-25T12:11:03.195Z,16.02
2019-03-25T12:13:33.261Z,16.57
2019-03-25T12:16:03.152Z,19.73
2019-03-25T12:18:33.511Z,15.43
2019-03-25T12:21:03.447Z,14.58
2019-03-25T12:23:33.408Z,13.83
2019-03-25T12:26:03.329Z,14.70
2019-03-25T12:28:33.260Z,15.95
2019-03-25T12:31:03.215Z,14.80
2019-03-25T12:33:33.231Z,13.65
2019-03-25T12:36:03.365Z,14.43
2019-03-25T12:38:33.388Z,14.68
2019-03-25T12:41:03.620Z,13.10
2019-03-25T12:43:33.569Z,13.45
2019-03-25T12:46:03.493Z,13.22
2019-03-25T12:48:33.437Z,14.58
2019-03-25T12:51:03.368Z,15.45
2019-03-25T12:53:33.300Z,12.88
2019-03-25T12:56:03.252Z,12.15
2019-03-25T12:58:33.274Z,12.35
2019-03-25T13:01:03.269Z,12.85
2019-03-25T13:03:33.209Z,16.32
2019-03-25T13:06:03.193Z,14.07
2019-03-25T13:08:33.664Z,12.28
2019-03-25T13:11:03.683Z,15.40
2019-03-25T13:13:33.623Z,12.40
2019-03-25T13:16:04.009Z,13.65
2019-03-25T13:18:33.882Z,11.65
2019-03-25T13:21:03.960Z,11.87
2019-03-25T13:23:33.873Z,11.80
2019-03-25T13:26:03.895Z,11.77
2019-03-25T13:28:33.852Z,13.13
2019-03-25T13:31:03.888Z,12.47
2019-03-25T13:33:33.871Z,11.83
2019-03-25T13:36:04.289Z,12.13
2019-03-25T13:38:34.201Z,12.43
2019-03-25T13:41:04.210Z,12.00
2019-03-25T13:43:34.163Z,11.57
2019-03-25T13:46:05.586Z,11.37
2019-03-25T13:48:35.700Z,11.23
2019-03-25T13:51:05.723Z,11.10
2019-03-25T13:53:35.677Z,11.13
2019-03-25T13:56:05.719Z,11.43
2019-03-25T13:58:35.685Z,10.40
2019-03-25T14:01:05.786Z,17.20
2019-03-25T14:03:36.163Z,16.07
2019-03-25T14:06:06.209Z,13.87
2019-03-25T14:08:36.137Z,20.53
2019-03-25T14:11:06.087Z,11.43
2019-03-25T14:13:36.109Z,10.03
2019-03-25T14:16:06.029Z,9.97
2019-03-25T14:18:35.936Z,11.00
2019-03-25T14:21:05.905Z,10.10
2019-03-25T14:23:35.892Z,10.67
2019-03-25T14:26:05.852Z,9.83
2019-03-25T14:28:37.019Z,10.70
2019-03-25T14:31:06.964Z,11.07
2019-03-25T14:33:37.014Z,9.77
2019-03-25T14:36:06.945Z,9.60
2019-03-25T14:38:36.877Z,10.17
2019-03-25T14:41:06.833Z,14.27
2019-03-25T14:43:36.805Z,9.83
2019-03-25T14:46:06.733Z,9.03
2019-03-25T14:48:36.661Z,11.73
2019-03-25T14:51:06.650Z,12.63
2019-03-25T14:53:44.801Z,13.97
2019-03-25T14:56:08.932Z,11.43
2019-03-25T14:58:38.893Z,9.87
2019-03-25T15:01:08.874Z,10.70
2019-03-25T15:03:38.869Z,13.10
2019-03-25T15:06:08.821Z,9.27
2019-03-25T15:08:38.729Z,11.10
2019-03-25T15:11:08.671Z,13.00
2019-03-25T15:13:38.680Z,10.77
2019-03-25T15:16:08.580Z,11.20
2019-03-25T15:18:38.566Z,12.03
2019-03-25T15:21:08.554Z,9.93
2019-03-25T15:23:38.573Z,9.60
2019-03-25T15:26:08.898Z,11.63
2019-03-25T15:28:39.792Z,13.33
2019-03-25T15:31:09.777Z,10.77
2019-03-25T15:33:39.803Z,13.13
2019-03-25T15:36:09.755Z,20.40
2019-03-25T15:38:39.766Z,12.90
2019-03-25T15:41:09.706Z,10.33
2019-03-25T15:43:39.735Z,12.00
2019-03-25T15:46:09.661Z,16.80
2019-03-25T15:48:39.644Z,13.53
2019-03-25T15:51:09.654Z,11.40
2019-03-25T15:53:39.927Z,14.60
2019-03-25T15:56:09.962Z,10.93
2019-03-25T15:58:39.944Z,13.70
2019-03-25T16:01:10.514Z,16.37
2019-03-25T16:03:40.564Z,16.37
2019-03-25T16:06:10.594Z,17.87
2019-03-25T16:08:41.951Z,39.60
2019-03-25T16:11:12.018Z,17.33
2019-03-25T16:13:42.179Z,18.87
2019-03-25T16:16:14.286Z,15.43
2019-03-25T16:18:47.107Z,19.37
2019-03-25T16:21:17.242Z,16.70
2019-03-25T16:23:47.226Z,16.63
2019-03-25T16:26:18.349Z,19.90
2019-03-25T16:28:49.047Z,17.97
2019-03-25T16:31:19.140Z,22.83
2019-03-25T16:33:49.152Z,18.00
2019-03-25T16:36:20.104Z,18.93
2019-03-25T16:38:50.157Z,29.40
2019-03-25T16:41:20.092Z,24.10
2019-03-25T16:43:50.412Z,23.97
2019-03-25T16:46:20.738Z,23.03
2019-03-25T16:48:50.662Z,18.10
2019-03-25T16:51:20.657Z,19.83
2019-03-25T16:53:50.624Z,29.73
2019-03-25T16:56:20.613Z,25.07
2019-03-25T16:58:50.548Z,19.63
2019-03-25T17:01:20.791Z,15.67
2019-03-25T17:03:52.197Z,19.00
2019-03-25T17:06:22.147Z,21.97
2019-03-25T17:08:52.246Z,21.20
2019-03-25T17:11:22.250Z,16.67
2019-03-25T17:13:52.183Z,19.63
2019-03-25T17:16:22.208Z,25.23
2019-03-25T17:18:52.252Z,20.47
2019-03-25T17:21:22.306Z,21.83
2019-03-25T17:23:52.556Z,20.23
2019-03-25T17:26:22.559Z,22.07
2019-03-25T17:28:52.707Z,27.67
2019-03-25T17:31:23.632Z,20.67
2019-03-25T17:33:53.968Z,41.77
2019-03-25T17:36:24.347Z,25.63
2019-03-25T17:38:54.410Z,29.83
2019-03-25T17:41:24.557Z,20.07
2019-03-25T17:43:54.658Z,19.87
2019-03-25T17:46:24.728Z,23.80
2019-03-25T17:48:54.760Z,23.93
2019-03-25T17:51:24.871Z,25.27
2019-03-25T17:54:01.064Z,28.30
2019-03-25T17:56:31.192Z,30.10
2019-03-25T17:59:01.504Z,30.83
2019-03-25T18:01:39.056Z,29.23
2019-03-25T18:04:09.046Z,35.13
2019-03-25T18:06:40.194Z,42.37
2019-03-25T18:09:10.992Z,36.77
2019-03-25T18:11:41.147Z,40.03
2019-03-25T18:14:11.186Z,36.10
2019-03-25T18:16:42.109Z,41.40
2019-03-25T18:19:12.917Z,29.73
2019-03-25T18:21:43.806Z,34.23
2019-03-25T18:24:13.771Z,35.00
2019-03-25T18:26:43.744Z,35.10
2019-03-25T18:29:14.164Z,42.63
2019-03-25T18:31:44.593Z,47.43
2019-03-25T18:34:14.560Z,39.40
2019-03-25T18:36:47.997Z,35.30
2019-03-25T18:39:18.018Z,34.07
2019-03-25T18:41:48.081Z,41.73
2019-03-25T18:44:18.024Z,41.03
2019-03-25T18:46:48.905Z,43.13
2019-03-25T18:49:19.134Z,38.77
2019-03-25T18:51:49.226Z,30.87
2019-03-25T18:54:19.207Z,27.80
2019-03-25T18:56:51.291Z,27.93
2019-03-25T18:59:23.101Z,24.43
2019-03-25T19:01:54.787Z,24.07
2019-03-25T19:04:27.285Z,21.90
2019-03-25T19:06:58.466Z,31.47
2019-03-25T19:09:28.520Z,28.43
2019-03-25T19:11:58.541Z,33.10
2019-03-25T19:14:29.536Z,28.80
2019-03-25T19:16:59.646Z,34.47
2019-03-25T19:19:32.725Z,30.10
2019-03-25T19:22:05.206Z,28.70
2019-03-25T19:24:34.653Z,30.80
2019-03-25T19:27:05.551Z,25.87
2019-03-25T19:29:35.670Z,25.27
2019-03-25T19:32:06.937Z,22.70
2019-03-25T19:34:37.293Z,21.47
2019-03-25T19:37:07.360Z,21.27
2019-03-25T19:39:37.559Z,17.43
2019-03-25T19:42:09.490Z,24.50
2019-03-25T19:44:39.781Z,15.93
2019-03-25T19:47:09.811Z,14.67
2019-03-25T19:49:39.780Z,17.67
2019-03-25T19:52:09.745Z,17.80
2019-03-25T19:54:39.689Z,19.33
2019-03-25T19:57:09.713Z,17.37
2019-03-25T19:59:40.188Z,21.23
2019-03-25T20:02:18.825Z,20.90
2019-03-25T20:04:41.955Z,22.67
2019-03-25T20:07:12.022Z,22.87
2019-03-25T20:09:42.587Z,22.07
2019-03-25T20:12:12.749Z,25.73
2019-03-25T20:14:42.882Z,26.27
2019-03-25T20:17:12.936Z,24.00
2019-03-25T20:19:43.261Z,22.87
2019-03-25T20:22:13.210Z,22.37
2019-03-25T20:24:43.165Z,22.03
2019-03-25T20:27:13.079Z,22.33
2019-03-25T20:29:43.105Z,24.33
2019-03-25T20:32:13.141Z,24.67
2019-03-25T20:34:43.051Z,21.27
2019-03-25T20:37:13.107Z,25.17
2019-03-25T20:39:43.237Z,25.37
2019-03-25T20:42:13.198Z,22.43
2019-03-25T20:44:43.165Z,19.27
2019-03-25T20:47:13.246Z,18.80
2019-03-25T20:49:43.267Z,18.33
2019-03-25T20:52:13.346Z,17.50
2019-03-25T20:54:43.464Z,16.70
2019-03-25T20:57:13.511Z,17.67
2019-03-25T20:59:43.678Z,18.10
2019-03-25T21:02:13.904Z,18.63
2019-03-25T21:04:44.409Z,15.90
2019-03-25T21:07:15.350Z,15.50
2019-03-25T21:09:45.590Z,16.40
2019-03-25T21:12:15.713Z,16.47
2019-03-25T21:14:45.753Z,15.83
2019-03-25T21:17:15.833Z,16.20
2019-03-25T21:19:45.962Z,13.83
2019-03-25T21:22:15.930Z,17.10
2019-03-25T21:24:46.116Z,14.80
2019-03-25T21:27:16.238Z,19.03
2019-03-25T21:29:46.349Z,20.17
2019-03-25T21:32:16.546Z,20.57
2019-03-25T21:34:49.680Z,21.17
2019-03-25T21:37:19.852Z,18.43
2019-03-25T21:39:49.750Z,21.07
2019-03-25T21:42:19.848Z,19.20
2019-03-25T21:44:50.076Z,19.73
2019-03-25T21:47:20.209Z,17.43
2019-03-25T21:49:50.356Z,19.10
2019-03-25T21:52:20.417Z,15.60
2019-03-25T21:54:50.636Z,16.17
2019-03-25T21:57:20.634Z,13.77
2019-03-25T21:59:50.707Z,14.37
2019-03-25T22:02:21.204Z,14.77
2019-03-25T22:04:51.214Z,12.20
2019-03-25T22:07:21.267Z,13.37
2019-03-25T22:09:51.533Z,18.37
2019-03-25T22:12:21.503Z,16.33
2019-03-25T22:14:51.507Z,16.20
2019-03-25T22:17:21.500Z,14.23
2019-03-25T22:19:51.575Z,13.80
2019-03-25T22:22:22.713Z,15.50
2019-03-25T22:24:52.738Z,18.20
2019-03-25T22:27:22.828Z,15.70
2019-03-25T22:29:52.786Z,18.37
2019-03-25T22:32:22.870Z,22.33
2019-03-25T22:34:52.909Z,20.47
2019-03-25T22:37:22.854Z,19.40
2019-03-25T22:39:52.854Z,21.83
2019-03-25T22:42:22.985Z,18.33
2019-03-25T22:44:53.023Z,19.50
2019-03-25T22:47:22.972Z,25.43
2019-03-25T22:49:53.907Z,19.47
2019-03-25T22:52:24.382Z,23.03
2019-03-25T22:54:54.408Z,20.47
2019-03-25T22:57:24.423Z,19.60
2019-03-25T22:59:54.450Z,19.27
2019-03-25T23:02:25.071Z,18.70
2019-03-25T23:04:56.083Z,16.10
2019-03-25T23:07:26.247Z,19.40
2019-03-25T23:09:56.568Z,20.73
2019-03-25T23:12:26.715Z,17.87
2019-03-25T23:14:56.748Z,17.13
2019-03-25T23:17:26.778Z,20.03
2019-03-25T23:19:56.790Z,21.03
2019-03-25T23:22:26.852Z,21.50
2019-03-25T23:24:56.853Z,24.63
2019-03-25T23:27:26.817Z,23.07
2019-03-25T23:29:56.812Z,21.00
2019-03-25T23:32:27.778Z,19.57
2019-03-25T23:34:57.834Z,25.60
2019-03-25T23:37:28.293Z,24.67
2019-03-25T23:39:58.625Z,26.13
2019-03-25T23:42:28.598Z,24.80
2019-03-25T23:44:58.601Z,22.20
2019-03-25T23:47:28.622Z,19.77
2019-03-25T23:49:58.782Z,24.50
2019-03-25T23:52:28.715Z,23.53
2019-03-25T23:54:58.760Z,23.87
2019-03-25T23:57:28.793Z,24.60
2019-03-25T23:59:58.735Z,22.93
